createdAt,value
2023-01-12T00:02:19.083Z,98897.14
2023-01-12T00:04:47.367Z,98899.78
2023-01-12T00:07:16.262Z,98907.00
2023-01-12T00:09:44.568Z,98901.41
2023-01-12T00:12:12.788Z,98904.04
2023-01-12T00:14:41.004Z,98901.01
2023-01-12T00:17:09.396Z,98900.85
2023-01-12T00:19:38.952Z,98902.20
2023-01-12T00:22:12.216Z,98908.52
2023-01-12T00:24:41.529Z,98905.63
2023-01-12T00:27:14.659Z,98905.60
2023-01-12T00:29:42.822Z,98908.05
2023-01-12T00:32:15.156Z,98910.95
2023-01-12T00:34:43.507Z,98916.96
2023-01-12T00:37:11.707Z,98915.40
2023-01-12T00:39:42.997Z,98920.48
2023-01-12T00:42:32.160Z,98920.67
2023-01-12T00:45:18.953Z,98924.31
2023-01-12T00:47:47.128Z,98923.17
2023-01-12T00:50:16.536Z,98923.80
2023-01-12T00:52:45.843Z,98923.11
2023-01-12T00:55:14.020Z,98923.64
2023-01-12T00:57:41.957Z,98923.73
2023-01-12T01:00:10.139Z,98926.73
2023-01-12T01:02:38.488Z,98932.10
2023-01-12T01:05:06.642Z,98941.41
2023-01-12T01:07:35.047Z,98941.02
2023-01-12T01:10:04.154Z,98944.35
2023-01-12T01:12:32.901Z,98948.70
2023-01-12T01:15:00.789Z,98943.52
2023-01-12T01:17:29.353Z,98945.34
2023-01-12T01:19:57.542Z,98947.36
2023-01-12T01:22:25.503Z,98945.69
2023-01-12T01:24:53.677Z,98945.75
2023-01-12T01:27:21.923Z,98944.02
2023-01-12T01:29:49.831Z,98944.72
2023-01-12T01:32:17.995Z,98948.66
2023-01-12T01:34:47.184Z,98951.22
2023-01-12T01:37:15.121Z,98949.27
2023-01-12T01:39:43.302Z,98942.88
2023-01-12T01:42:28.153Z,98942.13
2023-01-12T01:44:57.944Z,98944.23
2023-01-12T01:47:28.312Z,98948.15
2023-01-12T01:49:58.308Z,98951.52
2023-01-12T01:52:29.976Z,98958.31
2023-01-12T01:55:11.377Z,98960.21
2023-01-12T01:57:45.277Z,98964.48
2023-01-12T02:00:13.872Z,98961.66
2023-01-12T02:06:14.141Z,98967.31
2023-01-12T02:08:54.953Z,98967.61
2023-01-12T02:11:42.154Z,98964.69
2023-01-12T02:14:29.547Z,98963.46
2023-01-12T02:17:00.364Z,98962.52
2023-01-12T02:19:43.622Z,98962.30
2023-01-12T02:22:30.156Z,98968.63
2023-01-12T02:25:13.314Z,98971.27
2023-01-12T02:27:44.004Z,98968.73
2023-01-12T02:30:30.445Z,98964.06
2023-01-12T02:33:09.877Z,98974.89
2023-01-12T02:35:50.706Z,98976.62
2023-01-12T02:38:21.891Z,98976.81
2023-01-12T02:40:54.921Z,98976.79
2023-01-12T02:43:30.391Z,98980.81
2023-01-12T02:46:17.704Z,98980.75
2023-01-12T02:48:51.697Z,98985.26
2023-01-12T02:51:25.096Z,98987.35
2023-01-12T02:53:55.425Z,98987.77
2023-01-12T02:56:38.405Z,98990.40
2023-01-12T02:59:11.258Z,98992.35
2023-01-12T03:01:39.910Z,98990.09
2023-01-12T03:04:09.198Z,98991.17
2023-01-12T03:06:55.989Z,98992.48
2023-01-12T03:09:44.383Z,99002.52
2023-01-12T03:12:20.650Z,99009.70
2023-01-12T03:14:50.989Z,99008.46
2023-01-12T03:17:26.458Z,99009.45
2023-01-12T03:19:56.996Z,99009.70
2023-01-12T03:22:24.999Z,99013.64
2023-01-12T03:24:59.361Z,99008.39
2023-01-12T03:27:33.518Z,99003.81
2023-01-12T03:30:04.201Z,99005.58
2023-01-12T03:32:32.481Z,99004.73
2023-01-12T03:35:00.773Z,99003.45
2023-01-12T03:37:37.582Z,99004.45
2023-01-12T03:40:19.208Z,99001.73
2023-01-12T03:43:04.551Z,99001.91
2023-01-12T03:45:32.571Z,99005.39
2023-01-12T03:48:03.999Z,99006.98
2023-01-12T03:50:38.879Z,99007.69
2023-01-12T03:53:08.636Z,99008.58
2023-01-12T03:55:37.856Z,99011.21
2023-01-12T03:58:06.088Z,99014.46
2023-01-12T04:05:51.990Z,99019.38
2023-01-12T04:08:20.812Z,99021.17
2023-01-12T04:10:48.718Z,99024.48
2023-01-12T04:13:16.932Z,99022.55
2023-01-12T04:15:47.011Z,99016.76
2023-01-12T04:18:14.919Z,99015.65
2023-01-12T04:20:43.236Z,99015.83
2023-01-12T04:23:11.286Z,99017.12
2023-01-12T04:25:39.346Z,99014.55
2023-01-12T04:28:07.440Z,99016.13
2023-01-12T04:30:35.439Z,99021.58
2023-01-12T04:33:06.550Z,99024.38
2023-01-12T04:35:34.739Z,99023.80
2023-01-12T04:38:06.754Z,99021.95
2023-01-12T04:40:34.668Z,99028.75
2023-01-12T04:43:07.911Z,99034.60
2023-01-12T04:45:38.236Z,99035.95
2023-01-12T04:48:07.927Z,99035.56
2023-01-12T04:50:36.081Z,99038.52
2023-01-12T04:53:05.710Z,99036.29
2023-01-12T04:55:35.529Z,99042.27
2023-01-12T04:58:03.949Z,99044.00
2023-01-12T05:00:32.017Z,99041.13
2023-01-12T05:03:02.600Z,99043.89
2023-01-12T05:05:31.349Z,99049.80
2023-01-12T05:08:18.885Z,99047.67
2023-01-12T05:11:05.056Z,99047.96
2023-01-12T05:13:33.128Z,99046.33
2023-01-12T05:16:08.320Z,99050.88
2023-01-12T05:18:36.541Z,99050.77
2023-01-12T05:21:04.693Z,99049.17
2023-01-12T05:23:32.762Z,99048.16
2023-01-12T05:26:01.373Z,99048.52
2023-01-12T05:28:30.033Z,99055.32
2023-01-12T05:31:06.012Z,99054.79
2023-01-12T05:33:34.711Z,99056.27
2023-01-12T05:36:10.412Z,99055.63
2023-01-12T05:38:38.631Z,99056.46
2023-01-12T05:41:15.812Z,99055.17
2023-01-12T05:43:53.239Z,99056.65
2023-01-12T05:46:22.919Z,99061.07
2023-01-12T05:48:51.917Z,99057.51
2023-01-12T05:51:19.968Z,99046.95
2023-01-12T05:53:48.041Z,99043.62
2023-01-12T05:56:25.876Z,99049.39
2023-01-12T05:58:58.825Z,99054.38
2023-01-12T06:01:28.125Z,99051.00
2023-01-12T06:03:57.215Z,99056.77
2023-01-12T06:06:26.252Z,99054.85
2023-01-12T06:08:54.580Z,99053.00
2023-01-12T06:11:41.709Z,99048.76
2023-01-12T06:14:10.107Z,99055.09
2023-01-12T06:16:39.273Z,99057.85
2023-01-12T06:19:07.205Z,99063.05
2023-01-12T06:21:35.568Z,99060.33
2023-01-12T06:24:03.587Z,99057.80
2023-01-12T06:26:31.634Z,99057.92
2023-01-12T06:28:59.928Z,99065.48
2023-01-12T06:31:27.926Z,99064.67
2023-01-12T06:33:56.059Z,99071.89
2023-01-12T06:36:24.796Z,99071.71
2023-01-12T06:38:52.819Z,99074.23
2023-01-12T06:41:39.863Z,99074.98
2023-01-12T06:44:08.014Z,99072.73
2023-01-12T06:46:35.947Z,99079.00
2023-01-12T06:49:04.053Z,99075.61
2023-01-12T06:51:32.225Z,99074.53
2023-01-12T06:54:01.447Z,99074.98
2023-01-12T06:56:29.545Z,99076.90
2023-01-12T06:58:57.766Z,99084.47
2023-01-12T07:01:27.208Z,99079.56
2023-01-12T07:03:55.658Z,99079.20
2023-01-12T07:06:23.754Z,99076.80
2023-01-12T07:08:51.895Z,99078.61
2023-01-12T07:11:19.858Z,99081.17
2023-01-12T07:13:48.305Z,99081.84
2023-01-12T07:16:16.288Z,99084.69
2023-01-12T07:18:46.571Z,99084.98
2023-01-12T07:21:16.828Z,99087.01
2023-01-12T07:23:44.816Z,99090.53
2023-01-12T07:26:12.928Z,99083.45
2023-01-12T07:28:41.212Z,99088.73
2023-01-12T07:31:09.406Z,99092.02
2023-01-12T07:33:38.642Z,99090.71
2023-01-12T07:36:06.947Z,99089.39
2023-01-12T07:38:34.977Z,99092.40
2023-01-12T07:41:03.855Z,99093.61
2023-01-12T07:43:33.737Z,99092.39
2023-01-12T07:46:01.951Z,99096.16
2023-01-12T07:48:30.950Z,99092.15
2023-01-12T07:50:59.334Z,99094.77
2023-01-12T07:53:27.236Z,99098.84
2023-01-12T07:55:55.212Z,99101.88
2023-01-12T07:58:23.592Z,99097.61
2023-01-12T08:00:51.478Z,99100.88
2023-01-12T08:03:19.570Z,99097.85
2023-01-12T08:05:48.235Z,99103.22
2023-01-12T08:08:16.233Z,99105.56
2023-01-12T08:16:50.054Z,99104.77
2023-01-12T08:19:22.309Z,99102.11
2023-01-12T08:21:56.908Z,99109.36
2023-01-12T08:24:27.793Z,99107.89
2023-01-12T08:26:58.542Z,99108.73
2023-01-12T08:29:32.023Z,99110.38
2023-01-12T08:32:04.495Z,99110.31
2023-01-12T08:34:34.420Z,99111.44
2023-01-12T08:37:05.893Z,99109.84
2023-01-12T08:39:35.438Z,99108.10
2023-01-12T08:42:03.630Z,99109.16
2023-01-12T08:44:36.001Z,99112.63
2023-01-12T08:47:04.907Z,99114.60
2023-01-12T08:49:33.668Z,99114.92
2023-01-12T08:52:01.746Z,99115.84
2023-01-12T08:54:29.882Z,99120.65
2023-01-12T08:56:58.042Z,99121.70
2023-01-12T08:59:26.071Z,99119.98
2023-01-12T09:01:54.218Z,99116.63
2023-01-12T09:04:22.326Z,99118.91
2023-01-12T09:06:50.337Z,99120.13
2023-01-12T09:09:20.125Z,99114.95
2023-01-12T09:11:48.999Z,99106.91
2023-01-12T09:14:17.335Z,99105.17
2023-01-12T09:16:45.632Z,99098.41
2023-01-12T09:19:13.889Z,99098.77
2023-01-12T09:21:42.850Z,99095.40
2023-01-12T09:24:11.934Z,99091.48
2023-01-12T09:26:40.915Z,99087.59
2023-01-12T09:29:10.585Z,99080.23
2023-01-12T09:31:40.076Z,99084.36
2023-01-12T09:34:08.245Z,99083.92
2023-01-12T09:36:37.385Z,99078.42
2023-01-12T09:39:09.891Z,99072.59
2023-01-12T09:41:58.064Z,99070.23
2023-01-12T09:44:44.851Z,99067.00
2023-01-12T09:47:22.285Z,99066.75
2023-01-12T09:50:08.042Z,99066.73
2023-01-12T09:52:49.123Z,99061.54
2023-01-12T09:55:21.472Z,99056.02
2023-01-12T09:57:55.557Z,99055.52
2023-01-12T10:00:24.334Z,99058.69
2023-01-12T10:02:55.296Z,99056.96
2023-01-12T10:05:39.780Z,99051.89
2023-01-12T10:08:27.580Z,99048.58
2023-01-12T10:11:02.364Z,99049.91
2023-01-12T10:13:41.894Z,99048.08
2023-01-12T10:16:15.457Z,99047.41
2023-01-12T10:18:47.475Z,99042.27
2023-01-12T10:21:15.733Z,99040.70
2023-01-12T10:23:44.517Z,99037.73
2023-01-12T10:26:22.013Z,99042.59
2023-01-12T10:28:52.760Z,99035.73
2023-01-12T10:34:07.655Z,99035.96
2023-01-12T10:36:37.496Z,99027.48
2023-01-12T10:39:23.456Z,99026.27
2023-01-12T10:42:31.497Z,99020.07
2023-01-12T10:45:16.955Z,99017.64
2023-01-12T10:47:46.528Z,99016.51
2023-01-12T10:50:25.515Z,99016.23
2023-01-12T10:52:56.215Z,99006.50
2023-01-12T10:55:24.318Z,99006.05
2023-01-12T10:57:52.748Z,98999.92
2023-01-12T11:00:24.769Z,98998.35
2023-01-12T11:02:54.416Z,98998.59
2023-01-12T11:05:34.025Z,98995.81
2023-01-12T11:08:02.742Z,98993.23
2023-01-12T11:10:32.486Z,98989.95
2023-01-12T11:13:05.029Z,98992.69
2023-01-12T11:15:39.170Z,98986.80
2023-01-12T11:18:16.669Z,98986.62
2023-01-12T11:20:54.555Z,98987.21
2023-01-12T11:23:50.191Z,98982.98
2023-01-12T11:26:20.993Z,98983.64
2023-01-12T11:42:26.049Z,98959.34
2023-01-12T11:45:03.406Z,98959.10
2023-01-12T11:47:42.749Z,98957.58
2023-01-12T11:50:20.571Z,98949.50
2023-01-12T11:52:48.689Z,98945.39
2023-01-12T11:55:21.315Z,98949.77
2023-01-12T11:58:03.936Z,98947.03
2023-01-12T12:00:37.354Z,98947.13
2023-01-12T12:03:34.845Z,98946.04
2023-01-12T12:06:13.833Z,98944.45
2023-01-12T12:08:41.860Z,98938.65
2023-01-12T12:11:19.593Z,98932.22
2023-01-12T12:14:01.022Z,98927.78
2023-01-12T12:16:46.362Z,98930.63
2023-01-12T12:19:33.540Z,98932.95
2023-01-12T12:22:10.647Z,98931.88
2023-01-12T12:24:57.039Z,98927.80
2023-01-12T12:27:34.627Z,98931.02
2023-01-12T12:30:05.631Z,98933.69
2023-01-12T12:32:52.749Z,98929.02
2023-01-12T12:35:33.019Z,98927.91
2023-01-12T12:38:07.180Z,98926.50
2023-01-12T12:41:06.916Z,98920.77
2023-01-12T12:43:55.123Z,98913.30
2023-01-12T12:46:41.010Z,98914.82
2023-01-12T12:49:12.193Z,98916.12
2023-01-12T12:51:41.804Z,98914.35
2023-01-12T12:54:15.771Z,98910.26
2023-01-12T12:56:44.565Z,98912.40
2023-01-12T12:59:31.145Z,98913.14
2023-01-12T13:02:01.250Z,98914.23
2023-01-12T13:04:42.431Z,98909.52
2023-01-12T13:07:14.679Z,98909.55
2023-01-12T13:09:43.288Z,98905.04
2023-01-12T13:12:19.716Z,98894.48
2023-01-12T13:15:07.016Z,98891.71
2023-01-12T13:17:35.204Z,98882.12
2023-01-12T13:20:16.595Z,98880.14
2023-01-12T13:22:49.415Z,98875.31
2023-01-12T13:25:19.534Z,98870.19
2023-01-12T13:27:49.617Z,98867.85
2023-01-12T13:30:23.810Z,98870.96
2023-01-12T13:33:10.272Z,98868.21
2023-01-12T13:35:40.420Z,98866.90
2023-01-12T13:38:23.655Z,98869.11
2023-01-12T13:40:55.933Z,98862.80
2023-01-12T13:43:27.485Z,98859.63
2023-01-12T13:45:55.759Z,98867.14
2023-01-12T13:48:24.978Z,98863.37
2023-01-12T13:50:58.516Z,98864.89
2023-01-12T13:53:28.706Z,98856.92
2023-01-12T13:55:58.622Z,98857.05
2023-01-12T13:58:27.692Z,98858.03
2023-01-12T14:00:57.215Z,98860.33
2023-01-12T14:03:44.985Z,98852.46
2023-01-12T14:06:34.199Z,98855.03
2023-01-12T14:09:12.538Z,98855.64
2023-01-12T14:11:58.932Z,98856.30
2023-01-12T14:14:55.718Z,98853.94
2023-01-12T14:17:46.887Z,98855.02
2023-01-12T14:20:20.175Z,98852.47
2023-01-12T14:22:48.579Z,98855.06
2023-01-12T14:25:21.608Z,98852.39
2023-01-12T14:27:53.620Z,98854.55
2023-01-12T14:30:23.765Z,98856.23
2023-01-12T14:32:52.125Z,98854.21
2023-01-12T14:35:21.541Z,98852.39
2023-01-12T14:38:12.383Z,98852.59
2023-01-12T14:40:40.629Z,98852.52
2023-01-12T14:43:33.377Z,98854.10
2023-01-12T14:46:21.201Z,98852.61
2023-01-12T14:48:55.380Z,98858.14
2023-01-12T14:51:35.888Z,98852.39
2023-01-12T14:54:07.018Z,98849.42
2023-01-12T14:56:43.216Z,98845.46
2023-01-12T14:59:15.505Z,98845.28
2023-01-12T15:01:43.802Z,98844.73
2023-01-12T15:04:17.089Z,98848.11
2023-01-12T15:06:46.050Z,98848.14
2023-01-12T15:09:28.473Z,98844.37
2023-01-12T15:11:56.777Z,98844.80
2023-01-12T15:14:27.196Z,98844.42
2023-01-12T15:17:33.883Z,98846.70
2023-01-12T15:20:21.073Z,98841.16
2023-01-12T15:23:07.536Z,98839.86
2023-01-12T15:25:39.304Z,98835.95
2023-01-12T15:28:07.574Z,98827.56
2023-01-12T15:30:38.059Z,98831.35
2023-01-12T15:33:06.620Z,98833.70
2023-01-12T15:35:46.056Z,98831.23
2023-01-12T15:38:16.301Z,98831.80
2023-01-12T15:40:46.707Z,98831.73
2023-01-12T15:43:15.783Z,98823.95
2023-01-12T15:45:47.647Z,98823.37
2023-01-12T15:48:15.586Z,98828.64
2023-01-12T15:50:45.306Z,98822.52
2023-01-12T15:53:20.435Z,98821.82
2023-01-12T15:55:48.920Z,98817.70
2023-01-12T15:58:19.580Z,98817.11
2023-01-12T16:00:47.974Z,98819.73
2023-01-12T16:03:49.100Z,98820.43
2023-01-12T16:06:04.600Z,98818.23
2023-01-12T16:08:32.745Z,98818.16
2023-01-12T16:11:09.833Z,98825.52
2023-01-12T16:13:38.168Z,98819.98
2023-01-12T16:16:06.470Z,98822.98
2023-01-12T16:18:35.468Z,98822.89
2023-01-12T16:21:04.462Z,98818.23
2023-01-12T16:23:33.009Z,98810.69
2023-01-12T16:26:01.784Z,98810.02
2023-01-12T16:28:30.344Z,98807.52
2023-01-12T16:30:58.588Z,98805.33
2023-01-12T16:33:26.965Z,98804.77
2023-01-12T16:35:55.432Z,98800.86
2023-01-12T16:38:23.651Z,98803.64
2023-01-12T16:40:51.783Z,98801.11
2023-01-12T16:43:21.122Z,98802.08
2023-01-12T16:45:49.116Z,98802.21
2023-01-12T16:48:18.015Z,98801.41
2023-01-12T16:50:46.417Z,98800.12
2023-01-12T16:53:14.374Z,98798.59
2023-01-12T16:55:42.482Z,98797.45
2023-01-12T16:58:10.836Z,98797.91
2023-01-12T17:00:38.915Z,98794.36
2023-01-12T17:03:07.924Z,98791.11
2023-01-12T17:05:39.758Z,98787.95
2023-01-12T17:08:08.810Z,98786.41
2023-01-12T17:10:37.160Z,98786.02
2023-01-12T17:13:05.357Z,98783.42
2023-01-12T17:15:33.633Z,98792.23
2023-01-12T17:18:01.930Z,98785.39
2023-01-12T17:20:30.274Z,98784.23
2023-01-12T17:22:59.491Z,98784.05
2023-01-12T17:25:27.989Z,98778.76
2023-01-12T17:27:56.172Z,98779.98
2023-01-12T17:30:24.395Z,98775.61
2023-01-12T17:32:52.990Z,98774.11
2023-01-12T17:35:21.029Z,98778.15
2023-01-12T17:37:49.155Z,98778.20
2023-01-12T17:40:17.303Z,98778.75
2023-01-12T17:43:07.769Z,98776.85
2023-01-12T17:45:41.853Z,98769.66
2023-01-12T17:48:11.949Z,98775.71
2023-01-12T17:50:40.610Z,98774.77
2023-01-12T17:53:09.534Z,98772.02
2023-01-12T17:55:47.482Z,98760.78
2023-01-12T17:58:18.520Z,98766.80
2023-01-12T18:00:46.704Z,98763.76
2023-01-12T18:03:14.742Z,98762.09
2023-01-12T18:05:47.091Z,98769.91
2023-01-12T18:08:15.137Z,98768.69
2023-01-12T18:10:43.045Z,98764.42
2023-01-12T18:13:12.862Z,98764.36
2023-01-12T18:15:42.271Z,98763.37
2023-01-12T18:18:10.270Z,98758.35
2023-01-12T18:20:38.268Z,98753.95
2023-01-12T18:23:06.379Z,98753.08
2023-01-12T18:25:35.747Z,98754.27
2023-01-12T18:28:05.266Z,98747.90
2023-01-12T18:30:33.314Z,98745.87
2023-01-12T18:33:01.213Z,98742.41
2023-01-12T18:35:29.563Z,98745.02
2023-01-12T18:37:57.659Z,98738.77
2023-01-12T18:40:25.572Z,98735.92
2023-01-12T18:42:54.792Z,98735.33
2023-01-12T18:45:26.020Z,98727.25
2023-01-12T18:48:12.713Z,98734.20
2023-01-12T18:50:59.538Z,98729.83
2023-01-12T18:53:32.687Z,98729.16
2023-01-12T18:56:05.653Z,98728.86
2023-01-12T18:58:34.846Z,98733.98
2023-01-12T19:01:07.125Z,98736.70
2023-01-12T19:03:38.273Z,98736.95
2023-01-12T19:06:24.390Z,98737.08
2023-01-12T19:09:10.813Z,98735.45
2023-01-12T19:11:39.831Z,98735.36
2023-01-12T19:14:26.473Z,98732.30
2023-01-12T19:17:13.269Z,98728.82
2023-01-12T19:19:41.374Z,98729.63
2023-01-12T19:22:28.477Z,98731.05
2023-01-12T19:25:15.207Z,98727.69
2023-01-12T19:28:02.489Z,98727.02
2023-01-12T19:30:30.958Z,98730.78
2023-01-12T19:32:59.681Z,98737.48
2023-01-12T19:35:27.947Z,98728.52
2023-01-12T19:37:56.055Z,98729.27
2023-01-12T19:40:34.515Z,98729.39
2023-01-12T19:43:14.085Z,98722.11
2023-01-12T19:45:43.576Z,98721.17
2023-01-12T19:48:12.325Z,98719.61
2023-01-12T19:50:40.731Z,98721.81
2023-01-12T19:53:11.908Z,98719.77
2023-01-12T19:55:41.299Z,98718.29
2023-01-12T19:58:09.587Z,98711.32
2023-01-12T20:00:43.388Z,98713.48
2023-01-12T20:03:12.401Z,98717.02
2023-01-12T20:05:41.503Z,98711.11
2023-01-12T20:08:10.273Z,98713.61
2023-01-12T20:10:38.357Z,98711.64
2023-01-12T20:13:06.886Z,98711.83
2023-01-12T20:15:37.314Z,98713.08
2023-01-12T20:18:07.083Z,98714.23
2023-01-12T20:20:36.621Z,98717.92
2023-01-12T20:23:04.561Z,98716.61
2023-01-12T20:25:32.659Z,98718.42
2023-01-12T20:28:00.942Z,98717.36
2023-01-12T20:30:37.959Z,98717.00
2023-01-12T20:33:06.792Z,98715.20
2023-01-12T20:35:35.394Z,98713.92
2023-01-12T20:38:04.046Z,98714.38
2023-01-12T20:41:22.592Z,98715.39
2023-01-12T20:43:50.902Z,98711.09
2023-01-12T20:46:18.970Z,98709.61
2023-01-12T20:48:46.905Z,98705.30
2023-01-12T20:51:16.224Z,98702.41
2023-01-12T20:53:44.327Z,98703.16
2023-01-12T20:56:12.289Z,98702.50
2023-01-12T20:58:40.245Z,98702.85
2023-01-12T21:01:10.013Z,98708.65
2023-01-12T21:03:38.289Z,98708.53
2023-01-12T21:06:10.378Z,98713.62
2023-01-12T21:08:39.229Z,98712.70
2023-01-12T21:11:07.105Z,98714.78
2023-01-12T21:13:35.147Z,98717.94
2023-01-12T21:16:04.561Z,98717.59
2023-01-12T21:18:32.946Z,98713.63
2023-01-12T21:21:01.288Z,98711.91
2023-01-12T21:23:29.523Z,98714.33
2023-01-12T21:25:57.617Z,98714.27
2023-01-12T21:28:25.730Z,98704.45
2023-01-12T21:30:53.889Z,98704.05
2023-01-12T21:33:21.834Z,98704.70
2023-01-12T21:35:59.253Z,98700.61
2023-01-12T21:38:27.661Z,98697.03
2023-01-12T21:40:55.695Z,98698.27
2023-01-12T21:43:23.785Z,98696.83
2023-01-12T21:45:53.385Z,98701.34
2023-01-12T21:48:22.560Z,98696.81
2023-01-12T21:50:50.527Z,98689.79
2023-01-12T21:53:21.133Z,98689.27
2023-01-12T21:55:53.957Z,98690.50
2023-01-12T21:58:23.112Z,98686.05
2023-01-12T22:00:51.308Z,98682.44
2023-01-12T22:03:20.127Z,98671.20
2023-01-12T22:05:49.503Z,98668.91
2023-01-12T22:08:17.411Z,98673.01
2023-01-12T22:10:45.518Z,98672.27
2023-01-12T22:13:17.384Z,98678.45
2023-01-12T22:15:48.539Z,98677.63
2023-01-12T22:18:16.861Z,98672.44
2023-01-12T22:20:44.827Z,98673.98
2023-01-12T22:23:13.374Z,98671.10
2023-01-12T22:25:44.021Z,98675.08
2023-01-12T22:28:12.427Z,98672.98
2023-01-12T22:30:40.439Z,98676.42
2023-01-12T22:33:10.961Z,98676.08
2023-01-12T22:35:38.904Z,98676.61
2023-01-12T22:38:06.949Z,98672.15
2023-01-12T22:40:35.078Z,98671.70
2023-01-12T22:43:22.025Z,98670.84
2023-01-12T22:45:50.753Z,98664.23
2023-01-12T22:48:19.100Z,98663.80
2023-01-12T22:50:48.278Z,98662.16
2023-01-12T22:53:16.426Z,98661.39
2023-01-12T22:55:44.506Z,98658.40
2023-01-12T22:58:12.540Z,98658.28
2023-01-12T23:00:41.661Z,98656.30
2023-01-12T23:03:10.993Z,98656.95
2023-01-12T23:05:50.089Z,98654.43
2023-01-12T23:08:18.441Z,98654.84
2023-01-12T23:10:46.421Z,98652.85
2023-01-12T23:13:19.994Z,98654.48
2023-01-12T23:15:54.237Z,98656.15
2023-01-12T23:18:25.887Z,98658.89
2023-01-12T23:20:54.515Z,98658.20
2023-01-12T23:23:22.631Z,98658.40
2023-01-12T23:25:50.668Z,98655.30
2023-01-12T23:28:18.898Z,98656.30
2023-01-12T23:30:46.957Z,98658.02
2023-01-12T23:33:14.898Z,98652.23
2023-01-12T23:35:44.366Z,98652.36
2023-01-12T23:38:15.052Z,98644.14
2023-01-12T23:40:43.265Z,98645.98
2023-01-12T23:43:11.557Z,98649.59
2023-01-12T23:45:39.520Z,98648.73
2023-01-12T23:48:07.959Z,98651.23
2023-01-12T23:50:36.395Z,98658.08
2023-01-12T23:53:04.697Z,98653.46
2023-01-12T23:55:32.812Z,98652.91
2023-01-12T23:58:02.353Z,98655.78
